Time;durP1;ratioP1;P1;durP2;ratioP2;P2;SDS_P1;SDS_P2;PMS_P1;PMS_P2;Temp;Humidity;BMP_temperature;BMP_pressure;BME280_temperature;BME280_humidity;BME280_pressure;Samples;Min_cycle;Max_cycle;Signal;HPM_P1;HPM_P2
2022/05/06 00:01:54;;;;;;;3.85;3.65;;;11.00;99.90;;;;;;4195666;28;20716;-89
2022/05/06 00:03:56;;;;;;;6.03;5.57;;;11.00;99.90;;;;;;4177832;28;20111;-89
2022/05/06 00:05:59;;;;;;;5.93;5.72;;;11.10;99.90;;;;;;4195601;28;20041;-89
2022/05/06 00:08:01;;;;;;;4.95;4.82;;;11.10;99.90;;;;;;4193997;28;20440;-89
2022/05/06 00:10:05;;;;;;;;;;;11.00;99.90;;;;;;4161598;28;20041;-89
2022/05/06 00:12:08;;;;;;;;;;;11.10;99.90;;;;;;4167068;28;19925;-89
2022/05/06 00:14:10;;;;;;;3.90;3.70;;;11.10;99.90;;;;;;4161205;28;19983;-89
2022/05/06 00:16:15;;;;;;;7.80;4.85;;;11.10;99.90;;;;;;4161301;28;20065;-89
2022/05/06 00:18:18;;;;;;;4.22;4.13;;;11.10;99.90;;;;;;4144749;28;20053;-89
2022/05/06 00:20:21;;;;;;;5.38;4.32;;;11.10;99.90;;;;;;4161390;28;20076;-89
2022/05/06 00:22:24;;;;;;;3.80;3.63;;;11.10;99.90;;;;;;4161269;28;20551;-89
2022/05/06 00:24:28;;;;;;;5.00;4.70;;;11.10;99.90;;;;;;4161223;28;20045;-89
2022/05/06 00:26:31;;;;;;;5.38;4.95;;;11.10;99.90;;;;;;4144879;28;20136;-89
2022/05/06 00:28:34;;;;;;;3.90;3.70;;;11.10;99.90;;;;;;4144572;28;20096;-89
2022/05/06 00:30:36;;;;;;;4.53;4.32;;;11.10;99.90;;;;;;4161132;28;20069;-89
2022/05/06 00:32:39;;;;;;;5.35;4.95;;;11.10;99.90;;;;;;4166708;28;20057;-89
2022/05/06 00:34:41;;;;;;;7.35;5.28;;;11.10;99.90;;;;;;4193805;28;20063;-88
2022/05/06 00:36:44;;;;;;;5.95;3.42;;;11.10;99.90;;;;;;4177622;28;20037;-89
2022/05/06 00:38:46;;;;;;;4.25;4.15;;;11.10;99.90;;;;;;4160735;28;20041;-89
2022/05/06 00:40:50;;;;;;;5.13;4.80;;;11.10;99.90;;;;;;4177310;28;20091;-89
2022/05/06 00:42:52;;;;;;;5.00;4.70;;;11.10;99.90;;;;;;4193392;28;20049;-89
2022/05/06 00:44:54;;;;;;;3.80;2.58;;;11.10;99.90;;;;;;4193912;28;20072;-89
2022/05/06 00:46:58;;;;;;;4.25;3.58;;;11.10;99.90;;;;;;4177266;28;20083;-88
2022/05/06 00:49:01;;;;;;;5.13;4.93;;;11.20;99.90;;;;;;4176406;28;20045;-88
2022/05/06 00:51:06;;;;;;;4.72;4.32;;;11.20;99.90;;;;;;4166979;28;20041;-89
2022/05/06 00:53:09;;;;;;;5.80;4.88;;;11.20;99.90;;;;;;4177221;28;20037;-88
2022/05/06 00:55:13;;;;;;;5.65;5.53;;;11.20;99.90;;;;;;4176752;28;20079;-89
2022/05/06 00:57:17;;;;;;;6.00;5.43;;;11.20;99.90;;;;;;4165356;28;20081;-88
2022/05/06 00:59:19;;;;;;;5.45;4.95;;;11.10;99.90;;;;;;4176957;28;20037;-88
2022/05/06 01:01:48;;;;;;;5.18;5.03;;;11.10;99.90;;;;;;4173157;28;20041;-91
2022/05/06 01:03:52;;;;;;;4.95;4.85;;;11.10;99.90;;;;;;4127514;28;20042;-92
2022/05/06 01:05:54;;;;;;;6.25;5.28;;;11.10;99.90;;;;;;4127433;28;20050;-91
2022/05/06 01:07:58;;;;;;;5.35;4.70;;;11.00;99.90;;;;;;4133487;28;20081;-91
2022/05/06 01:10:02;;;;;;;4.53;4.22;;;11.00;99.90;;;;;;4131979;28;20133;-91
2022/05/06 01:12:05;;;;;;;3.70;3.40;;;11.00;99.90;;;;;;4127330;28;20439;-90
2022/05/06 01:14:08;;;;;;;4.95;4.55;;;11.10;99.90;;;;;;4143583;28;20061;-91
2022/05/06 01:16:12;;;;;;;4.60;4.07;;;11.10;99.90;;;;;;4114356;28;20085;-91
2022/05/06 01:18:16;;;;;;;4.05;3.75;;;11.00;99.90;;;;;;4137457;28;20129;-91
2022/05/06 01:20:20;;;;;;;4.65;4.35;;;11.10;99.90;;;;;;4122152;28;20129;-91
2022/05/06 01:22:23;;;;;;;4.25;3.75;;;11.10;99.90;;;;;;4111118;28;20121;-91
2022/05/06 01:24:27;;;;;;;4.25;3.95;;;11.00;99.90;;;;;;4127096;28;20047;-90
2022/05/06 01:26:50;;;;;;;4.88;4.30;;;11.00;99.90;;;;;;4126981;28;20622;-91
2022/05/06 01:28:54;;;;;;;3.63;3.45;;;11.10;99.90;;;;;;4140222;28;20058;-91
2022/05/06 01:31:03;;;;;;;4.75;3.83;;;11.00;99.90;;;;;;4143149;28;20038;-91
2022/05/06 01:33:10;;;;;;;4.25;4.05;;;11.00;99.90;;;;;;4138410;28;20045;-90
2022/05/06 01:35:14;;;;;;;5.55;4.22;;;11.00;99.90;;;;;;4143559;28;20142;-91
2022/05/06 01:37:18;;;;;;;4.68;4.35;;;11.00;99.90;;;;;;4143609;28;20038;-91
2022/05/06 01:39:28;;;;;;;5.13;3.70;;;11.00;99.90;;;;;;4127096;28;20163;-89
2022/05/06 01:41:35;;;;;;;3.92;3.72;;;11.00;99.90;;;;;;4171811;28;20041;-91
2022/05/06 01:43:43;;;;;;;8.52;4.82;;;11.00;99.90;;;;;;4160155;28;20050;-91
2022/05/06 01:45:48;;;;;;;4.75;4.32;;;11.00;99.90;;;;;;4170794;28;20044;-91
2022/05/06 01:47:54;;;;;;;4.20;3.90;;;11.00;99.90;;;;;;4176969;28;20090;-92
2022/05/06 01:49:59;;;;;;;5.50;3.83;;;11.00;99.90;;;;;;4194499;28;20033;-91
2022/05/06 01:52:02;;;;;;;3.83;3.63;;;11.00;99.90;;;;;;4167464;28;20540;-92
2022/05/06 01:54:05;;;;;;;3.60;3.40;;;11.00;99.90;;;;;;4176965;28;20681;-91
2022/05/06 01:56:10;;;;;;;3.28;3.08;;;11.00;99.90;;;;;;4176874;28;20037;-92
2022/05/06 01:58:12;;;;;;;3.53;3.33;;;11.00;99.90;;;;;;4185227;28;20045;-91
2022/05/06 02:00:15;;;;;;;;;;;11.00;99.90;;;;;;4144927;28;20046;-91
2022/05/06 02:02:17;;;;;;;3.88;3.55;;;11.00;99.90;;;;;;4191640;28;19920;-91
2022/05/06 02:06:40;;;;;;;3.40;3.20;;;11.00;99.90;;;;;;4176903;28;20057;-91
2022/05/06 02:08:43;;;;;;;3.90;3.17;;;11.00;99.90;;;;;;4194440;28;20048;-92
2022/05/06 02:10:45;;;;;;;3.83;3.53;;;11.00;99.90;;;;;;4160560;28;20041;-90
2022/05/06 02:12:48;;;;;;;4.07;3.72;;;11.00;99.90;;;;;;4176848;28;20583;-91
2022/05/06 02:14:50;;;;;;;;;;;11.10;99.90;;;;;;4160828;28;20133;-91
2022/05/06 02:16:53;;;;;;;2.85;2.65;;;11.10;99.90;;;;;;4176900;28;19968;-91
2022/05/06 02:18:55;;;;;;;5.13;3.53;;;11.10;99.90;;;;;;4176987;28;20119;-90
2022/05/06 02:21:01;;;;;;;4.75;3.13;;;11.00;99.90;;;;;;4193743;28;20041;-91
2022/05/06 02:23:04;;;;;;;4.07;3.78;;;11.00;99.90;;;;;;4176776;28;20463;-91
2022/05/06 02:25:09;;;;;;;3.40;3.22;;;11.00;99.90;;;;;;4160376;28;20757;-90
2022/05/06 02:27:37;;;;;;;3.58;3.17;;;11.00;99.90;;;;;;4170155;28;20413;-91
2022/05/06 02:33:12;;;;;;;2.45;2.35;;;11.00;99.90;;;;;;4082931;29;20043;-91
2022/05/06 02:34:24;;;;;;;3.00;2.65;;;11.10;99.90;;;;;;4113333;28;20106;-92
2022/05/06 02:36:27;;;;;;;2.83;2.63;;;11.10;99.90;;;;;;4108360;28;20426;-93
2022/05/06 02:38:29;;;;;;;3.10;2.72;;;11.10;99.90;;;;;;4099511;29;20187;-92
2022/05/06 02:40:38;;;;;;;;;;;11.10;99.90;;;;;;4113378;28;20063;-90
2022/05/06 02:42:41;;;;;;;5.82;2.60;;;11.10;99.90;;;;;;4115583;28;20004;-92
2022/05/06 02:44:43;;;;;;;5.65;3.25;;;11.10;99.90;;;;;;4099316;29;20078;-91
2022/05/06 02:46:45;;;;;;;7.53;4.40;;;11.10;99.90;;;;;;4080053;29;20647;-91
2022/05/06 02:48:48;;;;;;;2.53;2.40;;;11.10;99.90;;;;;;4098179;29;20067;-93
2022/05/06 02:50:50;;;;;;;4.22;2.75;;;11.10;99.90;;;;;;4085411;29;20044;-92
2022/05/06 02:52:53;;;;;;;4.88;2.45;;;11.10;99.90;;;;;;4093234;29;20050;-91
2022/05/06 02:54:56;;;;;;;4.72;2.83;;;11.10;99.90;;;;;;4097531;29;20047;-92
2022/05/06 02:56:58;;;;;;;2.70;2.50;;;11.10;99.90;;;;;;4097730;29;20520;-92
2022/05/06 02:59:01;;;;;;;2.97;2.78;;;11.10;99.90;;;;;;4097804;29;20047;-92
2022/05/06 03:01:03;;;;;;;2.45;2.28;;;11.10;99.90;;;;;;4097262;29;20172;-92
2022/05/06 03:03:06;;;;;;;3.88;3.20;;;11.10;99.90;;;;;;4097410;29;20083;-92
2022/05/06 03:05:10;;;;;;;3.88;3.55;;;11.10;99.90;;;;;;4097346;29;20043;-90
2022/05/06 03:07:13;;;;;;;3.08;2.78;;;11.10;99.90;;;;;;4156171;28;20725;-92
2022/05/06 03:09:15;;;;;;;5.88;2.67;;;11.10;99.90;;;;;;4177924;28;20512;-92
2022/05/06 03:11:17;;;;;;;3.92;2.30;;;11.10;99.90;;;;;;4162607;28;20057;-92
2022/05/06 03:13:21;;;;;;;2.75;2.55;;;11.10;99.90;;;;;;4146762;28;20046;-91
2022/05/06 03:15:24;;;;;;;3.08;2.75;;;11.10;99.90;;;;;;4146347;28;20061;-92
2022/05/06 03:17:27;;;;;;;2.67;2.47;;;11.10;99.90;;;;;;4180043;28;20083;-93
2022/05/06 03:19:29;;;;;;;5.07;2.95;;;11.10;99.90;;;;;;4163172;28;20051;-90
2022/05/06 03:21:34;;;;;;;7.22;2.60;;;11.10;99.90;;;;;;4162796;28;20041;-92
2022/05/06 03:23:37;;;;;;;2.67;2.58;;;11.10;99.90;;;;;;4163090;28;20045;-92
2022/05/06 03:25:40;;;;;;;4.75;2.70;;;11.10;99.90;;;;;;4162514;28;20046;-92
2022/05/06 03:30:04;;;;;;;3.25;3.05;;;11.10;99.90;;;;;;4180303;28;20044;-93
2022/05/06 03:32:06;;;;;;;3.00;2.85;;;11.10;99.90;;;;;;4163461;28;20521;-93
2022/05/06 03:34:09;;;;;;;3.83;3.05;;;11.10;99.90;;;;;;4163877;28;20045;-93
2022/05/06 03:36:12;;;;;;;5.10;2.28;;;11.10;99.90;;;;;;4162604;28;20049;-93
2022/05/06 03:38:16;;;;;;;3.03;2.92;;;11.10;99.90;;;;;;4146474;28;20073;-93
2022/05/06 03:40:18;;;;;;;3.78;3.28;;;11.10;99.90;;;;;;4170957;28;20068;-92
2022/05/06 03:42:21;;;;;;;2.67;2.58;;;11.10;99.90;;;;;;4146332;28;20037;-92
2022/05/06 03:44:23;;;;;;;3.47;3.20;;;11.10;99.90;;;;;;4175391;28;20144;-91
2022/05/06 03:46:25;;;;;;;3.22;3.13;;;11.10;99.90;;;;;;4155509;28;20105;-92
2022/05/06 03:48:28;;;;;;;4.32;2.63;;;11.10;99.90;;;;;;4162504;28;20037;-92
2022/05/06 03:52:53;;;;;;;2.50;2.33;;;11.00;99.90;;;;;;4168674;28;20045;-90
2022/05/06 03:54:55;;;;;;;2.97;2.88;;;11.00;99.90;;;;;;4178745;28;20079;-93
2022/05/06 03:56:58;;;;;;;2.78;2.55;;;11.00;99.90;;;;;;4179538;28;20041;-90
2022/05/06 03:59:00;;;;;;;;;;;11.10;99.90;;;;;;4179006;28;20037;-90
2022/05/06 04:01:09;;;;;;;3.63;3.00;;;11.10;99.90;;;;;;4178156;28;19931;-91
2022/05/06 04:03:13;;;;;;;4.28;4.07;;;11.20;99.90;;;;;;4179326;28;20072;-92
2022/05/06 04:05:16;;;;;;;4.63;2.75;;;11.20;99.90;;;;;;4182172;28;20032;-92
2022/05/06 04:07:22;;;;;;;3.25;3.00;;;11.20;99.90;;;;;;4159228;28;20046;-93
2022/05/06 04:09:25;;;;;;;3.50;3.17;;;11.20;99.90;;;;;;4161899;28;20045;-93
2022/05/06 04:11:29;;;;;;;5.65;4.40;;;11.10;99.90;;;;;;4148656;28;20041;-92
2022/05/06 04:13:33;;;;;;;3.70;3.42;;;11.10;99.90;;;;;;4178434;28;20066;-92
2022/05/06 04:15:35;;;;;;;3.05;2.58;;;11.20;99.90;;;;;;4145339;28;20057;-92
2022/05/06 04:17:38;;;;;;;4.43;3.88;;;11.20;99.90;;;;;;4161898;28;20158;-92
2022/05/06 04:23:28;;;;;;;5.60;5.32;;;11.20;99.90;;;;;;4169405;28;20484;-92
2022/05/06 04:24:24;;;;;;;3.58;3.35;;;11.40;99.90;;;;;;4161844;28;20049;-91
2022/05/06 04:26:26;;;;;;;4.13;3.90;;;11.50;99.90;;;;;;4145719;28;20069;-92
2022/05/06 04:28:31;;;;;;;3.70;3.17;;;11.40;99.90;;;;;;4177970;28;20484;-92
2022/05/06 04:30:34;;;;;;;4.55;4.22;;;11.40;99.90;;;;;;4161268;28;20572;-93
2022/05/06 04:32:36;;;;;;;5.63;5.28;;;11.40;99.90;;;;;;4157954;28;20136;-92
2022/05/06 04:34:39;;;;;;;6.90;5.95;;;11.40;99.90;;;;;;4178374;28;20112;-93
2022/05/06 04:36:42;;;;;;;5.22;4.82;;;11.60;99.90;;;;;;4161684;28;20525;-92
2022/05/06 04:38:44;;;;;;;5.40;5.20;;;11.70;99.90;;;;;;4145110;28;20607;-93
2022/05/06 04:40:47;;;;;;;5.32;4.97;;;11.70;99.90;;;;;;4159749;28;20120;-92
2022/05/06 04:42:49;;;;;;;4.95;4.65;;;11.60;99.90;;;;;;4145148;28;20081;-92
2022/05/06 04:44:51;;;;;;;5.18;4.60;;;11.60;99.90;;;;;;4145077;28;20050;-91
2022/05/06 04:46:53;;;;;;;4.35;4.05;;;11.50;99.90;;;;;;4161348;28;20695;-92
2022/05/06 04:48:55;;;;;;;5.00;4.72;;;11.50;99.90;;;;;;4145330;28;20046;-93
2022/05/06 04:51:01;;;;;;;5.22;5.00;;;11.50;99.90;;;;;;4175515;28;20464;-93
2022/05/06 04:53:07;;;;;;;6.88;5.65;;;11.50;99.90;;;;;;4145069;28;20048;-91
2022/05/06 04:55:09;;;;;;;6.80;6.30;;;11.50;99.90;;;;;;4144641;28;20375;-90
2022/05/06 04:57:11;;;;;;;;;;;11.70;99.90;;;;;;4161422;28;20518;-92
2022/05/06 04:59:14;;;;;;;7.03;6.15;;;11.90;99.90;;;;;;4146345;28;19972;-91
2022/05/06 05:01:16;;;;;;;6.68;6.28;;;11.90;99.90;;;;;;4161179;28;20044;-92
2022/05/06 05:03:21;;;;;;;5.95;5.45;;;12.00;99.90;;;;;;4169857;28;20037;-93
2022/05/06 05:05:24;;;;;;;5.35;4.78;;;12.10;99.90;;;;;;4144987;28;20140;-93
2022/05/06 05:07:27;;;;;;;4.97;4.72;;;12.10;99.90;;;;;;4132128;28;20516;-92
2022/05/06 05:09:29;;;;;;;4.78;4.35;;;12.20;99.90;;;;;;4161143;28;20037;-92
2022/05/06 05:11:34;;;;;;;5.35;4.90;;;12.20;99.90;;;;;;4177352;28;20212;-92
2022/05/06 05:13:39;;;;;;;6.40;5.88;;;12.20;99.90;;;;;;4144504;28;20038;-92
2022/05/06 05:15:41;;;;;;;7.05;5.60;;;12.10;99.90;;;;;;4161188;28;20037;-91
2022/05/06 05:17:45;;;;;;;5.50;3.67;;;12.00;99.90;;;;;;4160680;28;20045;-92
2022/05/06 05:19:47;;;;;;;5.45;4.55;;;11.90;99.90;;;;;;4148028;28;20770;-92
2022/05/06 05:22:15;;;;;;;6.78;4.85;;;11.90;99.90;;;;;;4144395;28;20038;-93
2022/05/06 05:24:18;;;;;;;5.70;4.80;;;11.90;99.90;;;;;;4078686;29;20071;-92
2022/05/06 05:26:24;;;;;;;7.55;4.63;;;11.90;99.90;;;;;;4094519;29;20515;-91
2022/05/06 05:28:27;;;;;;;7.68;5.57;;;11.90;99.90;;;;;;4094711;29;20460;-91
2022/05/06 05:30:29;;;;;;;5.28;4.97;;;12.00;99.90;;;;;;4078577;29;20123;-91
2022/05/06 05:32:32;;;;;;;5.28;4.32;;;12.10;99.90;;;;;;4091467;29;20473;-90
2022/05/06 05:34:35;;;;;;;4.68;4.45;;;12.10;99.90;;;;;;4094690;29;20117;-91
2022/05/06 05:36:44;;;;;;;4.53;4.32;;;12.10;99.90;;;;;;4064282;29;20052;-90
2022/05/06 05:38:46;;;;;;;4.72;4.40;;;12.20;99.90;;;;;;4063152;29;20186;-90
2022/05/06 05:40:49;;;;;;;3.67;3.47;;;12.30;99.90;;;;;;4079052;29;20058;-90
2022/05/06 05:42:51;;;;;;;4.82;3.60;;;12.30;99.90;;;;;;4079735;29;20058;-91
2022/05/06 05:49:34;;;;;;;4.30;4.20;;;12.30;99.90;;;;;;4110994;28;20142;-91
2022/05/06 05:51:38;;;;;;;5.13;4.00;;;12.30;99.90;;;;;;4094754;29;20047;-90
2022/05/06 05:53:40;;;;;;;5.47;5.25;;;12.20;99.90;;;;;;4110822;28;20138;-91
2022/05/06 05:55:43;;;;;;;3.78;3.58;;;12.20;99.90;;;;;;4094834;29;20051;-90
2022/05/06 05:57:47;;;;;;;5.30;4.53;;;12.30;99.90;;;;;;4094821;29;20051;-91
2022/05/06 05:59:50;;;;;;;4.13;3.83;;;12.30;99.90;;;;;;4105773;28;20732;-88
2022/05/06 06:01:53;;;;;;;3.90;3.60;;;12.30;99.90;;;;;;4153204;28;20084;-88
2022/05/06 06:03:56;;;;;;;2.47;2.13;;;12.40;99.90;;;;;;4176254;28;20059;-88
2022/05/06 06:05:59;;;;;;;2.03;2.03;;;12.50;99.90;;;;;;4159857;28;20050;-87
2022/05/06 06:08:02;;;;;;;2.33;2.25;;;12.60;99.90;;;;;;4184971;28;20074;-88
2022/05/06 06:10:04;;;;;;;2.58;2.05;;;12.70;99.90;;;;;;4162274;28;20053;-88
2022/05/06 06:12:07;;;;;;;;;;;12.80;99.90;;;;;;4190495;28;20484;-88
2022/05/06 06:14:09;;;;;;;4.32;3.45;;;12.80;99.90;;;;;;4197226;28;20364;-88
2022/05/06 06:16:12;;;;;;;2.55;2.10;;;12.80;99.90;;;;;;4195984;28;20044;-87
2022/05/06 06:18:15;;;;;;;2.72;2.55;;;12.80;99.90;;;;;;4195914;28;20086;-88
2022/05/06 06:20:21;;;;;;;2.47;2.40;;;12.80;99.90;;;;;;4196961;28;20068;-87
2022/05/06 06:22:24;;;;;;;3.15;2.95;;;12.90;99.90;;;;;;4162581;28;20049;-88
2022/05/06 06:24:28;;;;;;;3.63;3.38;;;12.90;99.90;;;;;;4196005;28;20036;-88
2022/05/06 06:26:31;;;;;;;3.38;3.28;;;12.90;99.90;;;;;;4179122;28;20135;-88
2022/05/06 06:28:34;;;;;;;3.38;2.85;;;12.90;99.90;;;;;;4179415;28;20120;-88
2022/05/06 06:30:36;;;;;;;2.63;2.08;;;12.80;99.90;;;;;;4179297;28;20577;-88
2022/05/06 06:32:38;;;;;;;2.65;2.45;;;12.90;99.90;;;;;;4179206;28;20072;-87
2022/05/06 06:34:40;;;;;;;2.85;2.63;;;12.90;99.90;;;;;;4178865;28;20123;-87
2022/05/06 06:36:42;;;;;;;4.03;2.50;;;12.80;99.90;;;;;;4162543;28;20069;-87
2022/05/06 06:38:46;;;;;;;2.53;2.33;;;12.90;99.90;;;;;;4179279;28;20175;-88
2022/05/06 06:40:49;;;;;;;2.50;2.40;;;12.80;99.90;;;;;;4196765;28;20075;-88
2022/05/06 06:42:51;;;;;;;5.63;2.67;;;12.90;99.90;;;;;;4194431;28;20040;-87
2022/05/06 06:44:53;;;;;;;1.95;1.90;;;12.90;99.90;;;;;;4160596;28;20179;-88
2022/05/06 06:46:55;;;;;;;2.40;1.95;;;12.90;99.90;;;;;;4163566;28;20128;-88
2022/05/06 06:48:57;;;;;;;1.55;1.40;;;13.00;99.90;;;;;;4162561;28;20041;-87
2022/05/06 06:51:00;;;;;;;1.90;1.80;;;13.10;99.90;;;;;;4164496;28;20073;-87
2022/05/06 06:53:02;;;;;;;2.22;2.22;;;13.20;99.90;;;;;;4146277;28;20076;-88
2022/05/06 06:55:05;;;;;;;2.05;1.95;;;13.40;99.90;;;;;;4146220;28;20503;-88
2022/05/06 06:57:07;;;;;;;2.45;1.75;;;13.50;99.90;;;;;;4155381;28;20065;-87
2022/05/06 06:59:09;;;;;;;1.25;1.15;;;13.50;99.90;;;;;;4130191;28;20145;-88
2022/05/06 07:01:11;;;;;;;2.85;2.75;;;13.60;99.90;;;;;;4162348;28;20041;-88
2022/05/06 07:03:15;;;;;;;2.03;2.03;;;13.70;99.90;;;;;;4162105;28;20037;-88
2022/05/06 07:05:17;;;;;;;2.35;1.70;;;13.70;99.90;;;;;;4179984;28;20040;-87
2022/05/06 07:12:03;;;;;;;1.70;1.10;;;13.80;99.90;;;;;;4171251;28;20069;-88
2022/05/06 07:14:06;;;;;;;1.30;1.20;;;13.90;99.90;;;;;;4163228;28;20679;-88
2022/05/06 07:16:10;;;;;;;1.20;1.20;;;14.10;99.90;;;;;;4163031;28;20049;-88
2022/05/06 07:18:12;;;;;;;1.20;1.20;;;14.00;99.90;;;;;;4180179;28;20119;-88
2022/05/06 07:20:14;;;;;;;1.45;1.10;;;14.00;99.90;;;;;;4164500;28;20065;-88
2022/05/06 07:22:17;;;;;;;1.10;1.10;;;14.00;99.90;;;;;;4154762;28;20517;-88
2022/05/06 07:24:30;;;;;;;2.72;1.10;;;14.00;99.90;;;;;;4164960;28;20729;-88
2022/05/06 07:26:32;;;;;;;1.00;1.00;;;14.00;99.90;;;;;;4162319;28;20037;-87
2022/05/06 07:28:34;;;;;;;1.55;1.10;;;14.10;99.90;;;;;;4163224;28;20033;-87
2022/05/06 07:30:36;;;;;;;2.22;1.40;;;14.10;99.90;;;;;;4146068;28;20534;-88
2022/05/06 07:32:40;;;;;;;1.63;1.20;;;14.00;99.90;;;;;;4177038;28;20148;-87
2022/05/06 07:34:43;;;;;;;1.40;1.40;;;14.10;99.90;;;;;;4162440;28;20033;-88
2022/05/06 07:36:45;;;;;;;3.17;1.38;;;14.10;99.90;;;;;;4162490;28;20531;-87
2022/05/06 07:38:48;;;;;;;1.20;1.20;;;14.20;99.90;;;;;;4179426;28;20037;-88
2022/05/06 07:40:52;;;;;;;2.45;1.40;;;14.10;99.90;;;;;;4162204;28;20049;-87
2022/05/06 07:42:55;;;;;;;1.70;1.70;;;14.10;99.90;;;;;;4162910;28;20077;-87
2022/05/06 07:45:00;;;;;;;;;;;14.10;99.90;;;;;;4195846;28;20492;-88
2022/05/06 07:47:02;;;;;;;2.47;1.58;;;14.10;99.90;;;;;;4178654;28;20363;-87
2022/05/06 07:49:05;;;;;;;9.13;2.40;;;14.10;99.90;;;;;;4179293;28;20115;-87
2022/05/06 07:51:07;;;;;;;3.08;2.13;;;14.10;99.90;;;;;;4178661;28;20437;-87
2022/05/06 07:53:15;;;;;;;3.67;2.88;;;14.00;99.90;;;;;;4161544;28;20037;-87
2022/05/06 07:55:24;;;;;;;6.45;2.30;;;14.00;99.90;;;;;;4163399;28;20041;-87
2022/05/06 07:57:27;;;;;;;2.72;2.30;;;13.90;99.90;;;;;;4187606;28;20068;-88
2022/05/06 07:59:31;;;;;;;1.63;1.50;;;14.00;99.90;;;;;;4178686;28;20463;-87
2022/05/06 08:06:14;;;;;;;3.13;2.92;;;14.10;99.90;;;;;;4195512;28;20036;-87
2022/05/06 08:08:16;;;;;;;3.33;2.03;;;14.10;99.90;;;;;;4179004;28;20057;-87
2022/05/06 08:10:19;;;;;;;3.00;2.80;;;14.20;99.90;;;;;;4161873;28;20221;-87
2022/05/06 08:12:22;;;;;;;3.83;1.88;;;14.30;99.90;;;;;;4158268;28;20104;-88
2022/05/06 08:14:25;;;;;;;1.88;1.77;;;14.40;99.90;;;;;;4189279;28;20067;-87
2022/05/06 08:16:27;;;;;;;2.08;1.92;;;14.50;99.90;;;;;;4178663;28;20052;-87
2022/05/06 08:18:30;;;;;;;2.88;1.60;;;14.50;99.90;;;;;;4178444;28;20056;-88
2022/05/06 08:20:32;;;;;;;2.53;1.95;;;14.60;99.90;;;;;;4194981;28;20036;-88
2022/05/06 08:22:36;;;;;;;4.05;2.38;;;14.70;99.90;;;;;;4166290;28;20124;-87
2022/05/06 08:24:38;;;;;;;2.13;1.80;;;14.70;99.90;;;;;;4177384;28;20412;-88
2022/05/06 08:26:40;;;;;;;1.63;1.52;;;14.70;99.90;;;;;;4194635;28;20158;-87
2022/05/06 08:28:42;;;;;;;1.92;1.92;;;14.70;99.90;;;;;;4180590;28;20075;-88
2022/05/06 08:30:50;;;;;;;1.75;1.67;;;14.80;99.90;;;;;;4195424;28;20056;-88
2022/05/06 08:32:53;;;;;;;2.75;1.92;;;14.90;99.90;;;;;;4193172;28;20607;-88
2022/05/06 08:34:55;;;;;;;2.65;1.75;;;15.10;99.90;;;;;;4194897;28;20132;-87
2022/05/06 08:36:57;;;;;;;;;;;15.20;99.90;;;;;;4178837;28;20091;-87
2022/05/06 08:38:59;;;;;;;1.80;1.17;;;15.20;99.90;;;;;;4194246;28;19925;-88
2022/05/06 08:41:01;;;;;;;1.75;1.65;;;15.10;99.90;;;;;;4194727;28;20576;-87
2022/05/06 08:43:04;;;;;;;1.75;1.65;;;15.10;99.90;;;;;;4177012;28;20068;-88
2022/05/06 08:52:16;;;;;;;1.30;1.20;;;15.30;99.90;;;;;;4164508;28;20544;-88
2022/05/06 08:54:19;;;;;;;1.13;1.13;;;15.40;99.90;;;;;;4163801;28;20746;-88
2022/05/06 08:56:21;;;;;;;;;;;15.30;99.90;;;;;;4161064;28;20045;-88
2022/05/06 08:58:25;;;;;;;1.73;1.45;;;15.30;99.90;;;;;;4160618;28;20704;-88
2022/05/06 09:00:28;;;;;;;2.00;1.90;;;15.30;99.90;;;;;;4163124;28;20420;-88
2022/05/06 09:02:31;;;;;;;1.88;1.25;;;15.40;99.90;;;;;;4177013;28;20041;-88
2022/05/06 09:04:39;;;;;;;1.33;1.23;;;15.40;99.90;;;;;;4176932;28;20469;-88
2022/05/06 09:06:41;;;;;;;1.33;1.20;;;15.40;99.90;;;;;;4194452;28;20036;-88
2022/05/06 09:08:44;;;;;;;3.40;1.45;;;15.40;99.90;;;;;;4195275;28;20552;-88
2022/05/06 09:11:04;;;;;;;3.72;1.60;;;15.40;99.90;;;;;;4190856;28;20119;-87
2022/05/06 09:13:06;;;;;;;1.48;1.30;;;15.30;99.90;;;;;;4144392;28;20076;-88
2022/05/06 09:17:32;;;;;;;3.00;1.40;;;15.20;99.90;;;;;;4183532;28;20064;-88
2022/05/06 09:19:34;;;;;;;2.25;1.30;;;15.20;99.90;;;;;;4178052;28;20459;-88
2022/05/06 09:21:40;;;;;;;1.90;1.40;;;15.10;99.90;;;;;;4177338;28;20056;-88
2022/05/06 09:23:42;;;;;;;1.50;1.40;;;14.90;99.90;;;;;;4167924;28;20127;-89
2022/05/06 09:25:49;;;;;;;1.48;1.30;;;14.80;99.90;;;;;;4175877;28;20445;-88
2022/05/06 09:28:22;;;;;;;1.58;1.50;;;14.80;99.90;;;;;;4171730;28;20580;-88
2022/05/06 09:30:24;;;;;;;1.73;1.58;;;14.90;99.90;;;;;;4130574;28;20145;-88
2022/05/06 09:32:29;;;;;;;1.38;1.38;;;14.90;99.90;;;;;;4116733;28;20046;-88
2022/05/06 09:34:31;;;;;;;1.45;1.35;;;15.00;99.90;;;;;;4117159;28;20109;-88
2022/05/06 09:36:34;;;;;;;2.28;1.20;;;15.00;99.90;;;;;;4113782;28;20144;-88
2022/05/06 09:38:36;;;;;;;3.05;1.17;;;15.00;99.90;;;;;;4134052;28;20137;-88
2022/05/06 09:40:39;;;;;;;3.03;1.52;;;15.00;99.90;;;;;;4121024;28;20601;-88
2022/05/06 09:42:43;;;;;;;3.42;1.40;;;15.10;99.90;;;;;;4128934;28;20066;-87
2022/05/06 09:44:47;;;;;;;1.80;1.70;;;15.20;99.90;;;;;;4128316;28;20514;-88
2022/05/06 09:47:08;;;;;;;1.50;1.40;;;15.10;99.90;;;;;;4137580;28;20042;-88
2022/05/06 09:49:11;;;;;;;1.83;1.60;;;15.00;99.90;;;;;;4134345;28;20050;-88
2022/05/06 09:51:34;;;;;;;4.63;1.85;;;15.00;99.90;;;;;;4118251;28;20066;-88
2022/05/06 09:53:37;;;;;;;4.10;1.30;;;15.00;99.90;;;;;;4129451;28;20042;-88
2022/05/06 09:55:42;;;;;;;3.13;1.48;;;15.00;99.90;;;;;;4127682;28;20057;-88
2022/05/06 09:57:44;;;;;;;3.70;1.50;;;15.00;99.90;;;;;;4126224;28;20078;-88
2022/05/06 09:59:48;;;;;;;1.88;1.20;;;15.00;99.90;;;;;;4139181;28;20049;-88
2022/05/06 10:02:18;;;;;;;1.98;1.88;;;15.00;99.90;;;;;;4123956;28;20049;-88
2022/05/06 10:04:22;;;;;;;1.70;1.55;;;15.20;99.90;;;;;;4095625;29;20054;-88
2022/05/06 10:06:25;;;;;;;1.88;1.50;;;15.20;99.90;;;;;;4071802;29;20483;-88
2022/05/06 10:08:28;;;;;;;1.65;1.55;;;15.20;99.90;;;;;;4117588;28;20158;-88
2022/05/06 10:10:35;;;;;;;1.50;1.40;;;15.20;99.90;;;;;;4103836;28;20120;-88
2022/05/06 10:12:49;;;;;;;2.80;1.73;;;15.10;99.90;;;;;;4127832;28;20065;-88
2022/05/06 10:14:53;;;;;;;1.48;1.38;;;15.10;99.90;;;;;;4120806;28;20786;-88
2022/05/06 10:16:57;;;;;;;1.30;1.30;;;15.00;99.90;;;;;;4088536;29;20043;-88
2022/05/06 10:19:00;;;;;;;1.33;1.33;;;15.00;99.90;;;;;;4106423;28;20077;-88
2022/05/06 10:21:04;;;;;;;1.63;1.30;;;15.00;99.90;;;;;;4127860;28;20093;-88
2022/05/06 10:23:15;;;;;;;1.85;1.42;;;15.00;99.90;;;;;;4112627;28;20038;-88
2022/05/06 10:25:50;;;;;;;9.25;1.20;;;15.00;99.90;;;;;;4110947;28;20388;-88
2022/05/06 10:32:56;;;;;;;1.30;1.27;;;14.80;99.90;;;;;;4110653;28;20130;-88
2022/05/06 10:34:58;;;;;;;2.38;1.00;;;14.80;99.90;;;;;;4112455;28;20085;-88
2022/05/06 10:37:13;;;;;;;1.10;1.10;;;14.70;99.90;;;;;;4113002;28;20086;-88
2022/05/06 10:39:26;;;;;;;2.35;1.08;;;14.60;99.90;;;;;;4112625;28;20606;-88
2022/05/06 10:41:28;;;;;;;1.10;1.10;;;14.70;99.90;;;;;;4112193;28;20419;-89
2022/05/06 10:43:42;;;;;;;1.20;1.20;;;14.80;99.90;;;;;;4115677;28;20135;-88
2022/05/06 10:45:48;;;;;;;1.45;1.35;;;14.70;99.90;;;;;;4115242;28;20073;-89
2022/05/06 10:47:51;;;;;;;1.88;1.10;;;14.80;99.90;;;;;;4145376;28;20076;-88
2022/05/06 10:49:54;;;;;;;1.30;1.20;;;14.80;99.90;;;;;;4144867;28;20085;-88
2022/05/06 10:52:28;;;;;;;1.10;1.10;;;14.70;99.90;;;;;;4128712;28;20042;-88
2022/05/06 10:54:31;;;;;;;1.40;1.30;;;14.70;99.90;;;;;;4128388;28;20482;-89
2022/05/06 10:56:33;;;;;;;1.13;1.10;;;14.70;99.90;;;;;;4145509;28;20037;-88
2022/05/06 10:58:39;;;;;;;1.25;1.00;;;14.70;99.90;;;;;;4145269;28;20042;-89
2022/05/06 11:00:42;;;;;;;1.50;1.00;;;14.60;99.90;;;;;;4129075;28;20057;-89
2022/05/06 11:02:45;;;;;;;2.25;1.10;;;14.60;99.90;;;;;;4145227;28;20081;-89
2022/05/06 11:04:51;;;;;;;1.10;1.10;;;14.60;99.90;;;;;;4179027;28;20059;-89
2022/05/06 11:07:13;;;;;;;2.97;1.42;;;14.70;99.90;;;;;;4178472;28;20045;-89
2022/05/06 11:09:29;;;;;;;1.10;1.10;;;14.60;99.90;;;;;;4173504;28;20490;-89
2022/05/06 11:11:33;;;;;;;1.13;1.00;;;14.70;99.90;;;;;;4181708;28;20076;-89
2022/05/06 11:13:36;;;;;;;1.20;1.20;;;14.70;99.90;;;;;;4177030;28;20548;-89
2022/05/06 11:15:38;;;;;;;0.93;0.93;;;14.70;99.90;;;;;;4194684;28;20044;-89
2022/05/06 11:17:44;;;;;;;0.90;0.90;;;14.80;99.90;;;;;;4177997;28;20037;-89
2022/05/06 11:19:46;;;;;;;1.00;1.00;;;14.90;99.90;;;;;;4178382;28;20049;-89
2022/05/06 11:22:06;;;;;;;0.95;0.95;;;14.90;99.90;;;;;;4162462;28;20390;-88
2022/05/06 11:24:17;;;;;;;1.02;1.00;;;14.90;99.90;;;;;;4190199;28;20047;-89
2022/05/06 11:26:31;;;;;;;1.75;1.02;;;15.00;99.90;;;;;;4186056;28;20067;-89
2022/05/06 11:28:36;;;;;;;0.93;0.93;;;15.00;99.90;;;;;;4195773;28;20064;-89
2022/05/06 11:30:41;;;;;;;1.65;0.90;;;15.00;99.90;;;;;;4177931;28;20033;-89
2022/05/06 11:32:49;;;;;;;0.90;0.90;;;15.00;99.90;;;;;;4195019;28;20408;-89